sensor_id;sensor_type;location;lat;lon;timestamp;P1;durP1;ratioP1;P2;durP2;ratioP2
52982;SDS011;48698;45.736;13.926;2023-06-14T00:00:34;9.85;;;5.00;;
52982;SDS011;48698;45.736;13.926;2023-06-14T00:05:37;8.18;;;4.65;;
52982;SDS011;48698;45.736;13.926;2023-06-14T00:10:50;4.57;;;3.97;;
52982;SDS011;48698;45.736;13.926;2023-06-14T00:16:04;7.40;;;4.80;;
52982;SDS011;48698;45.736;13.926;2023-06-14T00:21:07;7.22;;;3.97;;
52982;SDS011;48698;45.736;13.926;2023-06-14T00:26:10;6.85;;;4.28;;
52982;SDS011;48698;45.736;13.926;2023-06-14T00:31:14;7.20;;;4.70;;
52982;SDS011;48698;45.736;13.926;2023-06-14T00:36:17;7.90;;;4.50;;
52982;SDS011;48698;45.736;13.926;2023-06-14T00:41:31;4.28;;;3.47;;
52982;SDS011;48698;45.736;13.926;2023-06-14T00:46:47;4.90;;;3.50;;
52982;SDS011;48698;45.736;13.926;2023-06-14T00:51:51;5.97;;;4.45;;
52982;SDS011;48698;45.736;13.926;2023-06-14T00:56:54;5.78;;;3.97;;
52982;SDS011;48698;45.736;13.926;2023-06-14T01:01:58;7.40;;;3.60;;
52982;SDS011;48698;45.736;13.926;2023-06-14T01:07:02;5.60;;;3.92;;
52982;SDS011;48698;45.736;13.926;2023-06-14T01:12:21;6.15;;;3.70;;
52982;SDS011;48698;45.736;13.926;2023-06-14T01:17:31;6.63;;;3.65;;
52982;SDS011;48698;45.736;13.926;2023-06-14T01:22:35;6.35;;;4.10;;
52982;SDS011;48698;45.736;13.926;2023-06-14T01:27:39;8.15;;;3.40;;
52982;SDS011;48698;45.736;13.926;2023-06-14T01:32:43;5.83;;;3.50;;
52982;SDS011;48698;45.736;13.926;2023-06-14T01:37:48;5.88;;;3.40;;
52982;SDS011;48698;45.736;13.926;2023-06-14T01:43:02;7.35;;;3.83;;
52982;SDS011;48698;45.736;13.926;2023-06-14T01:48:17;5.47;;;3.70;;
52982;SDS011;48698;45.736;13.926;2023-06-14T01:53:28;5.82;;;3.83;;
52982;SDS011;48698;45.736;13.926;2023-06-14T01:58:32;5.97;;;3.85;;
52982;SDS011;48698;45.736;13.926;2023-06-14T02:03:36;5.20;;;3.57;;
52982;SDS011;48698;45.736;13.926;2023-06-14T02:08:41;5.82;;;3.55;;
52982;SDS011;48698;45.736;13.926;2023-06-14T02:13:48;6.53;;;3.53;;
52982;SDS011;48698;45.736;13.926;2023-06-14T02:18:52;4.60;;;3.70;;
52982;SDS011;48698;45.736;13.926;2023-06-14T02:23:55;7.63;;;3.57;;
52982;SDS011;48698;45.736;13.926;2023-06-14T02:29:09;5.95;;;4.03;;
52982;SDS011;48698;45.736;13.926;2023-06-14T02:34:15;5.22;;;3.80;;
52982;SDS011;48698;45.736;13.926;2023-06-14T02:39:23;4.78;;;3.90;;
52982;SDS011;48698;45.736;13.926;2023-06-14T02:49:41;4.53;;;3.47;;
52982;SDS011;48698;45.736;13.926;2023-06-14T02:54:45;6.50;;;3.60;;
52982;SDS011;48698;45.736;13.926;2023-06-14T02:59:53;6.03;;;3.60;;
52982;SDS011;48698;45.736;13.926;2023-06-14T03:04:57;5.78;;;3.55;;
52982;SDS011;48698;45.736;13.926;2023-06-14T03:10:04;4.85;;;3.13;;
52982;SDS011;48698;45.736;13.926;2023-06-14T03:15:08;6.00;;;3.70;;
52982;SDS011;48698;45.736;13.926;2023-06-14T03:20:12;7.03;;;3.40;;
52982;SDS011;48698;45.736;13.926;2023-06-14T03:25:16;7.50;;;3.40;;
52982;SDS011;48698;45.736;13.926;2023-06-14T03:30:19;8.75;;;3.47;;
52982;SDS011;48698;45.736;13.926;2023-06-14T03:35:23;3.35;;;2.75;;
52982;SDS011;48698;45.736;13.926;2023-06-14T03:40:27;4.53;;;3.50;;
52982;SDS011;48698;45.736;13.926;2023-06-14T03:45:30;6.53;;;3.03;;
52982;SDS011;48698;45.736;13.926;2023-06-14T03:50:34;6.35;;;3.65;;
52982;SDS011;48698;45.736;13.926;2023-06-14T03:55:37;4.35;;;3.28;;
52982;SDS011;48698;45.736;13.926;2023-06-14T04:00:59;4.13;;;3.20;;
52982;SDS011;48698;45.736;13.926;2023-06-14T04:11:08;5.07;;;3.20;;
52982;SDS011;48698;45.736;13.926;2023-06-14T04:16:11;5.20;;;2.92;;
52982;SDS011;48698;45.736;13.926;2023-06-14T04:21:14;5.00;;;3.20;;
52982;SDS011;48698;45.736;13.926;2023-06-14T04:26:18;5.90;;;3.30;;
52982;SDS011;48698;45.736;13.926;2023-06-14T04:31:23;6.63;;;3.33;;
52982;SDS011;48698;45.736;13.926;2023-06-14T04:36:42;8.23;;;3.50;;
52982;SDS011;48698;45.736;13.926;2023-06-14T04:41:52;5.45;;;3.10;;
52982;SDS011;48698;45.736;13.926;2023-06-14T04:46:59;7.97;;;3.37;;
52982;SDS011;48698;45.736;13.926;2023-06-14T04:52:03;6.93;;;3.30;;
52982;SDS011;48698;45.736;13.926;2023-06-14T04:57:08;7.88;;;3.47;;
52982;SDS011;48698;45.736;13.926;2023-06-14T05:02:26;6.65;;;3.47;;
52982;SDS011;48698;45.736;13.926;2023-06-14T05:07:31;11.70;;;3.38;;
52982;SDS011;48698;45.736;13.926;2023-06-14T05:12:37;6.43;;;3.88;;
52982;SDS011;48698;45.736;13.926;2023-06-14T05:17:40;6.78;;;3.70;;
52982;SDS011;48698;45.736;13.926;2023-06-14T05:22:44;8.48;;;3.38;;
52982;SDS011;48698;45.736;13.926;2023-06-14T05:27:55;7.07;;;3.00;;
52982;SDS011;48698;45.736;13.926;2023-06-14T05:32:59;7.47;;;3.30;;
52982;SDS011;48698;45.736;13.926;2023-06-14T05:38:03;6.10;;;2.63;;
52982;SDS011;48698;45.736;13.926;2023-06-14T05:43:07;6.07;;;3.30;;
52982;SDS011;48698;45.736;13.926;2023-06-14T05:53:24;8.13;;;3.70;;
52982;SDS011;48698;45.736;13.926;2023-06-14T05:58:39;6.43;;;3.63;;
52982;SDS011;48698;45.736;13.926;2023-06-14T06:03:43;5.30;;;3.38;;
52982;SDS011;48698;45.736;13.926;2023-06-14T06:08:50;4.88;;;3.30;;
52982;SDS011;48698;45.736;13.926;2023-06-14T06:13:53;7.55;;;3.40;;
52982;SDS011;48698;45.736;13.926;2023-06-14T06:19:00;9.18;;;3.58;;
52982;SDS011;48698;45.736;13.926;2023-06-14T06:24:04;7.20;;;3.38;;
52982;SDS011;48698;45.736;13.926;2023-06-14T06:29:13;6.35;;;3.47;;
52982;SDS011;48698;45.736;13.926;2023-06-14T06:34:17;10.88;;;3.40;;
52982;SDS011;48698;45.736;13.926;2023-06-14T06:39:24;7.18;;;3.47;;
52982;SDS011;48698;45.736;13.926;2023-06-14T06:44:39;5.30;;;3.22;;
52982;SDS011;48698;45.736;13.926;2023-06-14T06:49:53;6.38;;;2.78;;
52982;SDS011;48698;45.736;13.926;2023-06-14T06:54:56;7.63;;;3.25;;
52982;SDS011;48698;45.736;13.926;2023-06-14T07:00:01;5.57;;;3.08;;
52982;SDS011;48698;45.736;13.926;2023-06-14T07:05:05;5.95;;;2.95;;
52982;SDS011;48698;45.736;13.926;2023-06-14T07:10:09;9.57;;;3.15;;
52982;SDS011;48698;45.736;13.926;2023-06-14T07:15:17;4.15;;;2.75;;
52982;SDS011;48698;45.736;13.926;2023-06-14T07:25:25;4.55;;;2.92;;
52982;SDS011;48698;45.736;13.926;2023-06-14T07:30:29;8.48;;;2.80;;
52982;SDS011;48698;45.736;13.926;2023-06-14T07:35:43;6.95;;;3.40;;
52982;SDS011;48698;45.736;13.926;2023-06-14T07:40:46;7.95;;;3.08;;
52982;SDS011;48698;45.736;13.926;2023-06-14T07:45:50;7.22;;;3.15;;
52982;SDS011;48698;45.736;13.926;2023-06-14T07:51:10;6.82;;;3.03;;
52982;SDS011;48698;45.736;13.926;2023-06-14T07:56:14;6.43;;;3.03;;
52982;SDS011;48698;45.736;13.926;2023-06-14T08:01:18;6.90;;;3.05;;
52982;SDS011;48698;45.736;13.926;2023-06-14T08:06:23;5.25;;;3.05;;
52982;SDS011;48698;45.736;13.926;2023-06-14T08:16:39;5.47;;;3.35;;
52982;SDS011;48698;45.736;13.926;2023-06-14T08:21:42;4.22;;;3.00;;
52982;SDS011;48698;45.736;13.926;2023-06-14T08:26:46;7.18;;;3.17;;
52982;SDS011;48698;45.736;13.926;2023-06-14T08:36:54;7.28;;;3.42;;
52982;SDS011;48698;45.736;13.926;2023-06-14T08:47:01;7.80;;;3.20;;
52982;SDS011;48698;45.736;13.926;2023-06-14T08:52:07;3.95;;;2.88;;
52982;SDS011;48698;45.736;13.926;2023-06-14T08:57:13;3.70;;;2.92;;
52982;SDS011;48698;45.736;13.926;2023-06-14T09:02:18;6.32;;;2.85;;
52982;SDS011;48698;45.736;13.926;2023-06-14T09:07:25;4.45;;;3.17;;
52982;SDS011;48698;45.736;13.926;2023-06-14T09:12:39;7.47;;;3.20;;
52982;SDS011;48698;45.736;13.926;2023-06-14T09:17:43;3.90;;;3.00;;
52982;SDS011;48698;45.736;13.926;2023-06-14T09:22:46;5.45;;;3.03;;
52982;SDS011;48698;45.736;13.926;2023-06-14T09:27:51;4.65;;;3.00;;
52982;SDS011;48698;45.736;13.926;2023-06-14T09:32:54;4.40;;;3.17;;
52982;SDS011;48698;45.736;13.926;2023-06-14T09:38:11;4.85;;;3.20;;
52982;SDS011;48698;45.736;13.926;2023-06-14T09:43:17;6.32;;;2.90;;
52982;SDS011;48698;45.736;13.926;2023-06-14T10:10:35;3.63;;;2.50;;
52982;SDS011;48698;45.736;13.926;2023-06-14T10:16:09;7.93;;;2.80;;
52982;SDS011;48698;45.736;13.926;2023-06-14T10:21:21;6.15;;;2.63;;
52982;SDS011;48698;45.736;13.926;2023-06-14T11:25:55;4.15;;;2.72;;
52982;SDS011;48698;45.736;13.926;2023-06-14T11:31:02;5.97;;;2.95;;
52982;SDS011;48698;45.736;13.926;2023-06-14T11:36:06;4.65;;;2.70;;
52982;SDS011;48698;45.736;13.926;2023-06-14T11:41:11;6.82;;;3.05;;
52982;SDS011;48698;45.736;13.926;2023-06-14T11:46:18;4.32;;;2.80;;
52982;SDS011;48698;45.736;13.926;2023-06-14T11:51:27;5.85;;;2.45;;
52982;SDS011;48698;45.736;13.926;2023-06-14T11:56:31;5.53;;;2.70;;
52982;SDS011;48698;45.736;13.926;2023-06-14T12:01:35;5.45;;;2.42;;
52982;SDS011;48698;45.736;13.926;2023-06-14T12:06:51;4.78;;;2.88;;
52982;SDS011;48698;45.736;13.926;2023-06-14T12:12:00;4.88;;;2.63;;
52982;SDS011;48698;45.736;13.926;2023-06-14T12:17:07;4.63;;;2.63;;
52982;SDS011;48698;45.736;13.926;2023-06-14T12:22:11;4.22;;;3.00;;
52982;SDS011;48698;45.736;13.926;2023-06-14T12:27:17;7.63;;;3.20;;
52982;SDS011;48698;45.736;13.926;2023-06-14T12:32:27;5.22;;;3.30;;
52982;SDS011;48698;45.736;13.926;2023-06-14T12:37:31;7.38;;;3.80;;
52982;SDS011;48698;45.736;13.926;2023-06-14T12:47:38;4.55;;;3.10;;
52982;SDS011;48698;45.736;13.926;2023-06-14T12:52:41;4.82;;;3.30;;
52982;SDS011;48698;45.736;13.926;2023-06-14T13:02:49;4.43;;;3.13;;
52982;SDS011;48698;45.736;13.926;2023-06-14T13:07:54;6.75;;;3.70;;
52982;SDS011;48698;45.736;13.926;2023-06-14T13:12:57;4.53;;;3.25;;
52982;SDS011;48698;45.736;13.926;2023-06-14T13:18:03;5.05;;;3.47;;
52982;SDS011;48698;45.736;13.926;2023-06-14T13:23:17;4.72;;;3.10;;
52982;SDS011;48698;45.736;13.926;2023-06-14T13:28:20;6.70;;;3.60;;
52982;SDS011;48698;45.736;13.926;2023-06-14T13:33:24;7.03;;;3.38;;
52982;SDS011;48698;45.736;13.926;2023-06-14T13:38:27;6.63;;;3.25;;
52982;SDS011;48698;45.736;13.926;2023-06-14T13:43:31;3.95;;;3.13;;
52982;SDS011;48698;45.736;13.926;2023-06-14T13:48:44;5.65;;;3.17;;
52982;SDS011;48698;45.736;13.926;2023-06-14T13:53:50;5.90;;;3.30;;
52982;SDS011;48698;45.736;13.926;2023-06-14T13:58:56;4.20;;;3.13;;
52982;SDS011;48698;45.736;13.926;2023-06-14T14:09:14;5.38;;;3.25;;
52982;SDS011;48698;45.736;13.926;2023-06-14T14:14:17;6.82;;;3.47;;
52982;SDS011;48698;45.736;13.926;2023-06-14T14:19:27;5.70;;;3.13;;
52982;SDS011;48698;45.736;13.926;2023-06-14T14:24:31;5.05;;;3.22;;
52982;SDS011;48698;45.736;13.926;2023-06-14T14:29:34;4.97;;;3.45;;
52982;SDS011;48698;45.736;13.926;2023-06-14T14:34:38;4.30;;;3.08;;
52982;SDS011;48698;45.736;13.926;2023-06-14T14:39:43;5.88;;;3.00;;
52982;SDS011;48698;45.736;13.926;2023-06-14T14:44:49;4.85;;;3.10;;
52982;SDS011;48698;45.736;13.926;2023-06-14T14:49:52;5.55;;;3.60;;
52982;SDS011;48698;45.736;13.926;2023-06-14T14:54:56;3.72;;;3.03;;
52982;SDS011;48698;45.736;13.926;2023-06-14T14:59:59;6.68;;;3.47;;
52982;SDS011;48698;45.736;13.926;2023-06-14T15:10:06;3.90;;;3.22;;
52982;SDS011;48698;45.736;13.926;2023-06-14T15:15:11;4.57;;;3.20;;
52982;SDS011;48698;45.736;13.926;2023-06-14T15:20:14;5.72;;;3.08;;
52982;SDS011;48698;45.736;13.926;2023-06-14T15:25:29;6.97;;;3.30;;
52982;SDS011;48698;45.736;13.926;2023-06-14T15:30:33;6.03;;;3.33;;
52982;SDS011;48698;45.736;13.926;2023-06-14T15:35:36;5.60;;;3.25;;
52982;SDS011;48698;45.736;13.926;2023-06-14T15:40:42;4.32;;;3.30;;
52982;SDS011;48698;45.736;13.926;2023-06-14T15:45:46;5.82;;;3.30;;
52982;SDS011;48698;45.736;13.926;2023-06-14T15:50:53;3.92;;;3.17;;
52982;SDS011;48698;45.736;13.926;2023-06-14T15:55:56;5.65;;;3.45;;
52982;SDS011;48698;45.736;13.926;2023-06-14T16:01:07;4.97;;;3.00;;
52982;SDS011;48698;45.736;13.926;2023-06-14T16:06:21;7.15;;;3.47;;
52982;SDS011;48698;45.736;13.926;2023-06-14T16:11:31;5.85;;;3.00;;
52982;SDS011;48698;45.736;13.926;2023-06-14T16:21:48;3.88;;;2.92;;
52982;SDS011;48698;45.736;13.926;2023-06-14T16:26:52;5.72;;;3.13;;
52982;SDS011;48698;45.736;13.926;2023-06-14T16:31:57;5.25;;;3.00;;
52982;SDS011;48698;45.736;13.926;2023-06-14T16:37:01;4.18;;;3.30;;
52982;SDS011;48698;45.736;13.926;2023-06-14T16:42:17;4.60;;;2.83;;
52982;SDS011;48698;45.736;13.926;2023-06-14T16:47:20;5.53;;;3.17;;
52982;SDS011;48698;45.736;13.926;2023-06-14T16:52:24;12.18;;;3.45;;
52982;SDS011;48698;45.736;13.926;2023-06-14T16:57:28;7.25;;;3.05;;
52982;SDS011;48698;45.736;13.926;2023-06-14T17:12:39;7.37;;;2.97;;
52982;SDS011;48698;45.736;13.926;2023-06-14T17:17:56;4.90;;;3.20;;
52982;SDS011;48698;45.736;13.926;2023-06-14T17:22:59;5.25;;;3.28;;
52982;SDS011;48698;45.736;13.926;2023-06-14T17:28:04;3.97;;;3.10;;
52982;SDS011;48698;45.736;13.926;2023-06-14T17:33:08;5.32;;;3.25;;
52982;SDS011;48698;45.736;13.926;2023-06-14T17:38:16;11.88;;;3.70;;
52982;SDS011;48698;45.736;13.926;2023-06-14T17:43:21;6.57;;;3.10;;
52982;SDS011;48698;45.736;13.926;2023-06-14T17:48:24;6.28;;;3.50;;
52982;SDS011;48698;45.736;13.926;2023-06-14T17:53:31;5.80;;;3.70;;
52982;SDS011;48698;45.736;13.926;2023-06-14T17:58:35;5.57;;;3.50;;
52982;SDS011;48698;45.736;13.926;2023-06-14T18:08:52;7.40;;;3.50;;
52982;SDS011;48698;45.736;13.926;2023-06-14T18:13:56;6.03;;;3.50;;
52982;SDS011;48698;45.736;13.926;2023-06-14T18:18:59;7.13;;;3.78;;
52982;SDS011;48698;45.736;13.926;2023-06-14T18:24:03;5.30;;;3.90;;
52982;SDS011;48698;45.736;13.926;2023-06-14T18:29:08;5.82;;;3.63;;
52982;SDS011;48698;45.736;13.926;2023-06-14T18:34:22;6.57;;;3.95;;
52982;SDS011;48698;45.736;13.926;2023-06-14T18:39:26;4.75;;;3.60;;
52982;SDS011;48698;45.736;13.926;2023-06-14T18:44:30;5.05;;;3.83;;
52982;SDS011;48698;45.736;13.926;2023-06-14T18:49:33;8.98;;;3.95;;
52982;SDS011;48698;45.736;13.926;2023-06-14T18:59:41;5.60;;;3.60;;
52982;SDS011;48698;45.736;13.926;2023-06-14T19:09:48;8.83;;;4.40;;
52982;SDS011;48698;45.736;13.926;2023-06-14T19:14:53;7.07;;;3.63;;
52982;SDS011;48698;45.736;13.926;2023-06-14T19:19:57;6.13;;;3.67;;
52982;SDS011;48698;45.736;13.926;2023-06-14T19:25:01;6.93;;;3.67;;
52982;SDS011;48698;45.736;13.926;2023-06-14T19:30:05;5.72;;;3.80;;
52982;SDS011;48698;45.736;13.926;2023-06-14T19:35:09;4.95;;;3.47;;
52982;SDS011;48698;45.736;13.926;2023-06-14T19:40:24;4.50;;;3.50;;
52982;SDS011;48698;45.736;13.926;2023-06-14T19:45:27;4.28;;;3.38;;
52982;SDS011;48698;45.736;13.926;2023-06-14T19:50:34;10.32;;;3.53;;
52982;SDS011;48698;45.736;13.926;2023-06-14T19:55:38;6.45;;;3.72;;
52982;SDS011;48698;45.736;13.926;2023-06-14T20:00:41;3.95;;;2.97;;
52982;SDS011;48698;45.736;13.926;2023-06-14T20:05:45;4.32;;;3.30;;
52982;SDS011;48698;45.736;13.926;2023-06-14T20:15:53;6.78;;;3.38;;
52982;SDS011;48698;45.736;13.926;2023-06-14T20:20:58;5.55;;;3.40;;
52982;SDS011;48698;45.736;13.926;2023-06-14T20:26:02;6.93;;;3.80;;
52982;SDS011;48698;45.736;13.926;2023-06-14T20:31:06;8.43;;;3.92;;
52982;SDS011;48698;45.736;13.926;2023-06-14T20:36:14;6.80;;;3.90;;
52982;SDS011;48698;45.736;13.926;2023-06-14T20:41:18;6.15;;;3.80;;
52982;SDS011;48698;45.736;13.926;2023-06-14T20:46:22;7.95;;;3.85;;
52982;SDS011;48698;45.736;13.926;2023-06-14T20:51:30;6.82;;;3.78;;
52982;SDS011;48698;45.736;13.926;2023-06-14T20:56:34;7.47;;;4.20;;
52982;SDS011;48698;45.736;13.926;2023-06-14T21:01:38;7.45;;;4.13;;
52982;SDS011;48698;45.736;13.926;2023-06-14T21:06:52;4.40;;;3.85;;
52982;SDS011;48698;45.736;13.926;2023-06-14T21:11:55;6.13;;;3.80;;
52982;SDS011;48698;45.736;13.926;2023-06-14T21:16:59;6.88;;;4.10;;
52982;SDS011;48698;45.736;13.926;2023-06-14T21:22:03;6.78;;;4.03;;
52982;SDS011;48698;45.736;13.926;2023-06-14T21:27:06;7.22;;;4.22;;
52982;SDS011;48698;45.736;13.926;2023-06-14T21:32:10;5.97;;;4.00;;
52982;SDS011;48698;45.736;13.926;2023-06-14T21:37:13;5.60;;;4.07;;
52982;SDS011;48698;45.736;13.926;2023-06-14T21:42:27;6.43;;;3.80;;
52982;SDS011;48698;45.736;13.926;2023-06-14T21:47:30;5.00;;;4.00;;
52982;SDS011;48698;45.736;13.926;2023-06-14T21:52:34;7.07;;;4.27;;
52982;SDS011;48698;45.736;13.926;2023-06-14T21:57:37;7.30;;;4.00;;
52982;SDS011;48698;45.736;13.926;2023-06-14T22:02:41;12.63;;;4.30;;
52982;SDS011;48698;45.736;13.926;2023-06-14T22:07:44;8.32;;;4.35;;
52982;SDS011;48698;45.736;13.926;2023-06-14T22:12:48;13.03;;;3.97;;
52982;SDS011;48698;45.736;13.926;2023-06-14T22:17:52;9.05;;;4.32;;
52982;SDS011;48698;45.736;13.926;2023-06-14T22:22:58;7.60;;;3.80;;
52982;SDS011;48698;45.736;13.926;2023-06-14T22:28:03;5.60;;;3.95;;
52982;SDS011;48698;45.736;13.926;2023-06-14T22:38:28;7.35;;;4.10;;
52982;SDS011;48698;45.736;13.926;2023-06-14T22:43:33;5.28;;;3.70;;
52982;SDS011;48698;45.736;13.926;2023-06-14T22:48:39;6.35;;;3.70;;
52982;SDS011;48698;45.736;13.926;2023-06-14T22:53:49;5.20;;;3.88;;
52982;SDS011;48698;45.736;13.926;2023-06-14T22:58:53;4.75;;;3.83;;
52982;SDS011;48698;45.736;13.926;2023-06-14T23:03:58;5.22;;;3.88;;
52982;SDS011;48698;45.736;13.926;2023-06-14T23:09:02;6.47;;;3.60;;
52982;SDS011;48698;45.736;13.926;2023-06-14T23:14:05;6.40;;;4.13;;
52982;SDS011;48698;45.736;13.926;2023-06-14T23:19:09;8.93;;;3.40;;
52982;SDS011;48698;45.736;13.926;2023-06-14T23:24:12;5.50;;;3.83;;
52982;SDS011;48698;45.736;13.926;2023-06-14T23:29:29;5.57;;;4.10;;
52982;SDS011;48698;45.736;13.926;2023-06-14T23:34:37;8.02;;;4.20;;
52982;SDS011;48698;45.736;13.926;2023-06-14T23:39:41;5.77;;;3.73;;
52982;SDS011;48698;45.736;13.926;2023-06-14T23:44:51;5.82;;;4.00;;
52982;SDS011;48698;45.736;13.926;2023-06-14T23:50:05;5.60;;;3.50;;
52982;SDS011;48698;45.736;13.926;2023-06-14T23:55:09;5.53;;;3.30;;
